ΕΜΥ, Εθνική Μετεωρολογική Υπηρεσία - Δελτία Καιρού, Προγνώσεις

ΑΕΡΟΝΑΥΤΙΛΙΑ

GREEK AIRPORTS CODES

LGAV 250950Z 05004KT 010V100 9999 FEW030 20/11 Q1024 RMK FEW080 BKN150 NOSIG=

EUROPEAN AIRPORTS CODES

LFPO 251000Z 19008KT 9999 -RA SCT012 SCT033 BKN060 10/08Q1003 TEMPO 4000 -RA=